createdAt,value
2022-10-26T00:01:37.624Z,1.43
2022-10-26T00:04:15.251Z,3.43
2022-10-26T00:06:47.850Z,5.60
2022-10-26T00:09:27.629Z,2.33
2022-10-26T00:12:31.680Z,3.10
2022-10-26T00:15:14.076Z,1.57
2022-10-26T00:17:43.660Z,4.10
2022-10-26T00:20:19.753Z,3.80
2022-10-26T00:22:50.534Z,5.57
2022-10-26T00:25:40.646Z,8.47
2022-10-26T00:28:13.664Z,5.07
2022-10-26T00:30:46.590Z,9.50
2022-10-26T00:33:16.446Z,6.97
2022-10-26T00:35:51.513Z,6.87
2022-10-26T00:38:20.480Z,8.87
2022-10-26T00:43:39.589Z,9.00
2022-10-26T00:46:13.322Z,10.50
2022-10-26T00:48:47.961Z,11.67
2022-10-26T00:51:26.163Z,8.77
2022-10-26T00:53:58.248Z,7.30
2022-10-26T00:59:17.843Z,14.17
2022-10-26T01:01:53.334Z,6.80
2022-10-26T01:04:25.262Z,13.67
2022-10-26T01:06:55.415Z,11.33
2022-10-26T01:09:24.593Z,12.80
2022-10-26T01:11:54.383Z,11.80
2022-10-26T01:14:26.684Z,10.73
2022-10-26T01:20:14.067Z,18.90
2022-10-26T01:22:46.983Z,11.17
2022-10-26T01:25:36.145Z,8.30
2022-10-26T01:28:16.184Z,14.30
2022-10-26T01:30:49.191Z,14.07
2022-10-26T01:33:31.426Z,12.70
2022-10-26T01:36:09.757Z,8.33
2022-10-26T01:38:54.076Z,12.40
2022-10-26T01:41:35.171Z,15.47
2022-10-26T01:44:08.225Z,14.63
2022-10-26T01:46:45.010Z,11.63
2022-10-26T01:49:19.332Z,17.63
2022-10-26T01:51:53.882Z,16.27
2022-10-26T01:54:24.435Z,12.77
2022-10-26T01:57:11.458Z,16.53
2022-10-26T01:59:55.711Z,14.73
2022-10-26T02:02:54.253Z,11.50
2022-10-26T02:06:00.571Z,13.97
2022-10-26T02:08:42.326Z,15.07
2022-10-26T02:11:25.583Z,12.60
2022-10-26T02:13:58.071Z,13.27
2022-10-26T02:16:38.927Z,10.60
2022-10-26T02:19:17.266Z,13.00
2022-10-26T02:21:50.479Z,9.03
2022-10-26T02:24:19.209Z,15.07
2022-10-26T02:26:50.099Z,13.87
2022-10-26T02:29:24.782Z,11.23
2022-10-26T02:31:54.358Z,10.97
2022-10-26T02:34:30.699Z,10.83
2022-10-26T02:37:02.419Z,13.87
2022-10-26T02:39:34.444Z,11.43
2022-10-26T02:42:07.310Z,15.60
2022-10-26T02:44:43.262Z,10.87
2022-10-26T02:47:19.333Z,11.80
2022-10-26T02:49:51.915Z,10.57
2022-10-26T02:52:31.491Z,13.90
2022-10-26T02:55:06.884Z,8.50
2022-10-26T02:57:43.159Z,10.00
2022-10-26T03:00:14.626Z,14.53
2022-10-26T03:02:47.553Z,12.43
2022-10-26T03:05:23.106Z,11.17
2022-10-26T03:07:52.469Z,17.20
2022-10-26T03:10:23.426Z,9.87
2022-10-26T03:12:53.456Z,10.33
2022-10-26T03:15:21.742Z,15.13
2022-10-26T03:17:50.248Z,11.43
2022-10-26T03:20:20.178Z,13.27
2022-10-26T03:22:49.205Z,13.23
2022-10-26T03:25:17.615Z,16.30
2022-10-26T03:27:46.267Z,11.70
2022-10-26T03:30:15.550Z,13.43
2022-10-26T03:32:43.693Z,16.43
2022-10-26T03:35:11.864Z,15.97
2022-10-26T03:37:41.621Z,14.47
2022-10-26T03:40:14.418Z,14.30
2022-10-26T03:42:46.228Z,15.63
2022-10-26T03:45:14.452Z,14.43
2022-10-26T03:47:46.029Z,13.47
2022-10-26T03:50:18.060Z,14.77
2022-10-26T03:52:52.629Z,14.43
2022-10-26T03:55:22.088Z,16.23
2022-10-26T03:57:51.788Z,9.30
2022-10-26T04:00:23.404Z,12.13
2022-10-26T04:03:06.927Z,17.60
2022-10-26T04:05:37.472Z,14.00
2022-10-26T04:08:07.437Z,14.93
2022-10-26T04:10:35.805Z,14.97
2022-10-26T04:13:04.103Z,11.50
2022-10-26T04:15:33.991Z,14.50
2022-10-26T04:18:08.201Z,10.07
2022-10-26T04:20:39.779Z,14.23
2022-10-26T04:23:13.860Z,17.63
2022-10-26T04:25:42.858Z,9.03
2022-10-26T04:28:12.791Z,13.97
2022-10-26T04:30:41.715Z,15.77
2022-10-26T04:33:10.219Z,9.60
2022-10-26T04:35:41.436Z,15.30
2022-10-26T04:38:11.963Z,13.57
2022-10-26T04:40:40.475Z,13.30
2022-10-26T04:43:08.795Z,13.13
2022-10-26T04:45:37.528Z,10.67
2022-10-26T04:48:08.951Z,12.37
2022-10-26T04:50:38.181Z,10.37
2022-10-26T04:53:07.145Z,16.73
2022-10-26T04:55:37.350Z,8.80
2022-10-26T04:58:06.804Z,11.73
2022-10-26T05:00:36.617Z,14.43
2022-10-26T05:03:10.154Z,12.73
2022-10-26T05:05:38.994Z,11.83
2022-10-26T05:08:08.514Z,11.57
2022-10-26T05:10:41.085Z,15.40
2022-10-26T05:13:10.800Z,7.67
2022-10-26T05:15:39.066Z,13.43
2022-10-26T05:18:09.230Z,11.47
2022-10-26T05:20:40.077Z,12.40
2022-10-26T05:23:18.668Z,14.17
2022-10-26T05:25:48.699Z,10.53
2022-10-26T05:28:19.004Z,11.87
2022-10-26T05:30:48.191Z,10.67
2022-10-26T05:33:18.972Z,11.43
2022-10-26T05:35:52.540Z,10.80
2022-10-26T05:38:20.939Z,10.83
2022-10-26T05:40:52.224Z,11.57
2022-10-26T05:43:22.822Z,8.37
2022-10-26T05:45:52.013Z,15.40
2022-10-26T05:48:20.419Z,9.77
2022-10-26T05:50:49.549Z,9.83
2022-10-26T05:53:18.585Z,15.17
2022-10-26T05:55:49.280Z,10.03
2022-10-26T05:58:19.534Z,14.70
2022-10-26T06:01:04.915Z,12.40
2022-10-26T06:03:57.146Z,16.63
2022-10-26T06:06:26.309Z,14.70
2022-10-26T06:08:57.724Z,15.20
2022-10-26T06:11:26.667Z,8.67
2022-10-26T06:14:00.426Z,11.03
2022-10-26T06:16:37.970Z,12.37
2022-10-26T06:19:23.001Z,11.80
2022-10-26T06:22:11.109Z,11.33
2022-10-26T06:24:45.916Z,12.57
2022-10-26T06:27:28.134Z,16.53
2022-10-26T06:30:02.934Z,14.07
2022-10-26T06:32:31.822Z,12.20
2022-10-26T06:35:13.094Z,14.43
2022-10-26T06:37:44.054Z,12.90
2022-10-26T06:40:15.869Z,11.77
2022-10-26T06:42:44.486Z,9.20
2022-10-26T06:45:17.011Z,16.17
2022-10-26T06:47:53.049Z,12.53
2022-10-26T06:50:31.244Z,11.17
2022-10-26T06:53:08.129Z,12.10
2022-10-26T06:55:43.560Z,15.97
2022-10-26T06:58:17.182Z,13.00
2022-10-26T07:00:49.768Z,12.47
2022-10-26T07:03:18.120Z,17.43
2022-10-26T07:05:47.840Z,15.70
2022-10-26T07:08:34.700Z,15.87
2022-10-26T07:11:05.770Z,16.80
2022-10-26T07:13:35.118Z,13.03
2022-10-26T07:16:05.106Z,15.80
2022-10-26T07:18:33.079Z,15.63
2022-10-26T07:21:01.334Z,13.57
2022-10-26T07:26:01.860Z,17.70
2022-10-26T07:28:29.941Z,20.47
2022-10-26T07:31:00.190Z,20.37
2022-10-26T07:33:30.345Z,21.13
2022-10-26T07:36:00.211Z,22.73
2022-10-26T07:38:29.153Z,22.17
2022-10-26T07:40:57.387Z,18.40
2022-10-26T07:43:25.867Z,15.60
2022-10-26T07:45:54.098Z,16.03
2022-10-26T07:48:23.327Z,22.13
2022-10-26T07:50:55.099Z,20.97
2022-10-26T07:53:28.058Z,15.67
2022-10-26T07:56:04.927Z,22.23
2022-10-26T07:58:33.149Z,20.17
2022-10-26T08:01:08.364Z,16.60
2022-10-26T08:03:38.817Z,23.93
2022-10-26T08:06:13.507Z,22.43
2022-10-26T08:08:48.620Z,22.17
2022-10-26T08:11:17.087Z,23.53
2022-10-26T08:13:45.355Z,19.60
2022-10-26T08:16:18.437Z,20.00
2022-10-26T08:18:55.482Z,17.03
2022-10-26T08:21:39.109Z,17.33
2022-10-26T08:24:19.182Z,17.47
2022-10-26T08:26:50.474Z,16.10
2022-10-26T08:29:27.721Z,12.43
2022-10-26T08:31:57.189Z,20.27
2022-10-26T08:34:25.695Z,15.17
2022-10-26T08:36:56.086Z,24.70
2022-10-26T08:39:31.992Z,15.63
2022-10-26T08:42:10.487Z,17.97
2022-10-26T08:44:44.830Z,17.00
2022-10-26T08:47:19.541Z,13.07
2022-10-26T08:49:58.154Z,14.77
2022-10-26T08:52:35.851Z,18.27
2022-10-26T08:55:06.066Z,11.53
2022-10-26T08:57:39.575Z,17.93
2022-10-26T09:00:18.917Z,18.47
2022-10-26T09:02:53.506Z,13.40
2022-10-26T09:05:28.464Z,17.07
2022-10-26T09:08:10.323Z,17.37
2022-10-26T09:14:26.925Z,17.87
2022-10-26T09:17:19.036Z,19.30
2022-10-26T09:20:29.047Z,16.80
2022-10-26T09:23:23.775Z,19.03
2022-10-26T09:26:01.103Z,16.70
2022-10-26T09:28:42.070Z,17.40
2022-10-26T09:31:30.721Z,12.27
2022-10-26T09:34:14.775Z,16.20
2022-10-26T09:40:43.828Z,20.70
2022-10-26T09:43:24.042Z,18.93
2022-10-26T09:45:57.295Z,17.30
2022-10-26T09:48:45.169Z,22.03
2022-10-26T09:51:53.410Z,22.93
2022-10-26T09:57:38.587Z,16.60
2022-10-26T10:00:11.904Z,13.30
2022-10-26T10:02:51.482Z,18.40
2022-10-26T10:12:09.368Z,17.83
2022-10-26T10:18:11.040Z,16.87
2022-10-26T10:20:46.963Z,19.37
2022-10-26T10:23:41.688Z,16.23
2022-10-26T10:26:14.033Z,17.30
2022-10-26T10:28:44.151Z,13.97
2022-10-26T10:32:01.543Z,12.97
2022-10-26T10:34:44.810Z,17.33
2022-10-26T10:43:58.848Z,17.47
2022-10-26T10:46:35.719Z,15.77
2022-10-26T10:49:37.797Z,15.10
2022-10-26T10:52:59.329Z,13.77
2022-10-26T10:59:02.855Z,15.57
2022-10-26T11:01:50.180Z,12.83
2022-10-26T11:05:05.694Z,12.83
2022-10-26T11:16:39.727Z,14.17
2022-10-26T11:19:18.422Z,16.33
2022-10-26T11:29:21.201Z,17.80
2022-10-26T11:32:31.247Z,11.43
2022-10-26T11:36:05.245Z,15.00
2022-10-26T11:39:27.438Z,15.77
2022-10-26T11:43:08.829Z,20.30
2022-10-26T11:49:16.318Z,11.77
2022-10-26T11:52:11.827Z,20.97
2022-10-26T11:55:11.334Z,18.57
2022-10-26T11:57:43.558Z,12.10
2022-10-26T12:00:37.226Z,15.10
2022-10-26T12:03:25.441Z,15.60
2022-10-26T12:06:06.516Z,17.03
2022-10-26T12:08:38.686Z,7.07
2022-10-26T12:11:18.344Z,12.40
2022-10-26T12:13:57.835Z,12.77
2022-10-26T12:16:47.407Z,9.47
2022-10-26T12:19:38.081Z,10.80
2022-10-26T12:22:12.144Z,14.30
2022-10-26T12:27:55.147Z,12.00
2022-10-26T12:33:36.279Z,10.10
2022-10-26T12:36:47.546Z,12.83
2022-10-26T12:39:41.618Z,20.57
2022-10-26T12:42:43.509Z,15.83
2022-10-26T12:45:51.214Z,14.20
2022-10-26T12:48:52.543Z,11.00
2022-10-26T12:54:59.615Z,17.07
2022-10-26T12:58:08.286Z,17.43
2022-10-26T13:00:47.387Z,13.30
2022-10-26T13:03:49.529Z,13.13
2022-10-26T13:06:56.115Z,12.47
2022-10-26T13:09:39.628Z,15.73
2022-10-26T13:12:10.980Z,18.77
2022-10-26T13:20:55.701Z,20.73
2022-10-26T13:23:31.216Z,12.27
2022-10-26T13:26:27.900Z,14.63
2022-10-26T13:29:27.575Z,20.07
2022-10-26T13:31:59.971Z,23.10
2022-10-26T13:34:32.849Z,16.53
2022-10-26T13:37:32.274Z,14.07
2022-10-26T13:44:06.609Z,10.13
2022-10-26T13:46:42.381Z,13.83
2022-10-26T13:49:27.967Z,15.00
2022-10-26T13:54:59.389Z,17.60
2022-10-26T13:57:34.775Z,17.37
2022-10-26T14:00:10.633Z,15.97
2022-10-26T14:02:44.687Z,18.10
2022-10-26T14:05:19.786Z,8.50
2022-10-26T14:07:55.656Z,16.90
2022-10-26T14:10:34.798Z,15.13
2022-10-26T14:13:15.546Z,14.47
2022-10-26T14:15:49.872Z,16.23
2022-10-26T14:18:51.150Z,16.67
2022-10-26T14:21:23.137Z,18.00
2022-10-26T14:23:56.469Z,18.13
2022-10-26T14:26:28.339Z,18.67
2022-10-26T14:28:58.729Z,19.97
2022-10-26T14:31:30.826Z,15.33
2022-10-26T14:34:05.945Z,12.27
2022-10-26T14:36:41.684Z,17.23
2022-10-26T14:39:54.172Z,14.10
2022-10-26T14:42:31.355Z,12.33
2022-10-26T14:45:04.381Z,13.97
2022-10-26T14:47:37.780Z,13.87
2022-10-26T14:50:23.736Z,16.43
2022-10-26T14:55:52.581Z,14.07
2022-10-26T15:01:51.644Z,15.50
2022-10-26T15:04:39.738Z,12.97
2022-10-26T15:07:18.967Z,17.37
2022-10-26T15:09:48.568Z,13.83
2022-10-26T15:12:22.239Z,13.53
2022-10-26T15:14:54.358Z,13.60
2022-10-26T15:17:32.615Z,16.63
2022-10-26T15:20:19.621Z,10.63
2022-10-26T15:23:19.558Z,11.83
2022-10-26T15:25:55.192Z,18.20
2022-10-26T15:28:26.441Z,19.13
2022-10-26T15:31:02.587Z,14.23
2022-10-26T15:33:31.466Z,17.67
2022-10-26T15:36:27.172Z,17.33
2022-10-26T15:39:06.898Z,19.97
2022-10-26T15:41:43.027Z,17.13
2022-10-26T15:44:17.894Z,18.90
2022-10-26T15:46:53.442Z,21.17
2022-10-26T15:49:26.564Z,22.00
2022-10-26T15:54:36.817Z,23.63
2022-10-26T15:57:29.767Z,22.87
2022-10-26T16:00:00.510Z,25.37
2022-10-26T16:02:30.222Z,21.47
2022-10-26T16:04:59.228Z,20.57
2022-10-26T16:07:30.248Z,22.77
2022-10-26T16:10:00.860Z,27.87
2022-10-26T16:12:47.965Z,18.77
2022-10-26T16:18:04.831Z,25.40
2022-10-26T16:20:33.701Z,22.33
2022-10-26T16:23:11.724Z,19.60
2022-10-26T16:25:59.245Z,20.43
2022-10-26T16:28:28.327Z,20.43
2022-10-26T16:31:01.009Z,18.77
2022-10-26T16:33:31.915Z,29.03
2022-10-26T16:36:01.822Z,19.97
2022-10-26T16:38:32.883Z,23.47
2022-10-26T16:41:04.488Z,18.13
2022-10-26T16:43:33.963Z,24.03
2022-10-26T16:46:05.953Z,21.83
2022-10-26T16:48:38.394Z,23.83
2022-10-26T16:51:10.780Z,20.30
2022-10-26T16:53:41.113Z,19.63
2022-10-26T16:56:11.978Z,22.10
2022-10-26T16:58:41.605Z,20.03
2022-10-26T17:01:13.322Z,17.10
2022-10-26T17:03:42.091Z,20.07
2022-10-26T17:06:13.891Z,23.87
2022-10-26T17:08:45.672Z,22.63
2022-10-26T17:11:16.293Z,21.00
2022-10-26T17:13:45.602Z,19.03
2022-10-26T17:16:15.599Z,23.37
2022-10-26T17:18:44.601Z,22.37
2022-10-26T17:21:14.075Z,21.43
2022-10-26T17:23:58.730Z,23.80
2022-10-26T17:26:32.404Z,23.50
2022-10-26T17:29:01.072Z,24.43
2022-10-26T17:31:32.589Z,25.10
2022-10-26T17:34:03.431Z,26.30
2022-10-26T17:36:35.982Z,25.80
2022-10-26T17:39:05.883Z,21.87
2022-10-26T17:41:36.431Z,26.40
2022-10-26T17:44:05.140Z,23.80
2022-10-26T17:46:34.111Z,23.00
2022-10-26T17:49:03.197Z,27.10
2022-10-26T17:51:33.022Z,27.73
2022-10-26T17:54:01.482Z,25.20
2022-10-26T17:56:40.656Z,29.93
2022-10-26T17:59:13.929Z,23.93
2022-10-26T18:01:58.176Z,43.87
2022-10-26T18:04:26.667Z,28.33
2022-10-26T18:07:13.339Z,28.57
2022-10-26T18:10:13.851Z,31.87
2022-10-26T18:12:51.473Z,29.03
2022-10-26T18:15:20.016Z,29.23
2022-10-26T18:17:58.214Z,27.13
2022-10-26T18:20:28.189Z,26.33
2022-10-26T18:22:57.688Z,35.23
2022-10-26T18:25:26.122Z,29.50
2022-10-26T18:28:01.973Z,23.03
2022-10-26T18:30:30.450Z,33.67
2022-10-26T18:32:58.799Z,22.47
2022-10-26T18:35:27.117Z,32.17
2022-10-26T18:37:55.200Z,27.70
2022-10-26T18:40:25.280Z,26.47
2022-10-26T18:43:12.665Z,32.07
2022-10-26T18:45:41.166Z,21.23
2022-10-26T18:48:09.501Z,21.70
2022-10-26T18:50:41.305Z,27.67
2022-10-26T18:53:12.797Z,26.97
2022-10-26T18:55:42.064Z,26.30
2022-10-26T18:58:14.322Z,31.93
2022-10-26T19:00:44.234Z,24.70
2022-10-26T19:03:12.805Z,26.47
2022-10-26T19:05:43.824Z,34.50
2022-10-26T19:08:12.019Z,24.43
2022-10-26T19:10:40.365Z,24.63
2022-10-26T19:13:08.912Z,25.23
2022-10-26T19:15:38.850Z,30.30
2022-10-26T19:18:07.993Z,29.73
2022-10-26T19:20:38.648Z,18.33
2022-10-26T19:23:09.681Z,31.07
2022-10-26T19:25:37.942Z,23.67
2022-10-26T19:28:06.655Z,27.93
2022-10-26T19:30:35.691Z,38.73
2022-10-26T19:33:05.592Z,25.57
2022-10-26T19:38:02.608Z,29.13
2022-10-26T19:40:31.273Z,27.63
2022-10-26T19:42:59.386Z,23.43
2022-10-26T19:45:28.151Z,22.70
2022-10-26T19:48:00.137Z,29.43
2022-10-26T19:50:32.018Z,32.97
2022-10-26T19:53:02.600Z,26.37
2022-10-26T19:55:35.998Z,33.67
2022-10-26T19:58:04.533Z,25.53
2022-10-26T20:00:37.310Z,31.70
2022-10-26T20:03:06.268Z,36.77
2022-10-26T20:05:36.352Z,45.97
2022-10-26T20:08:05.739Z,43.97
2022-10-26T20:10:34.560Z,38.17
2022-10-26T20:13:02.901Z,30.53
2022-10-26T20:15:31.229Z,30.07
2022-10-26T20:17:59.605Z,27.83
2022-10-26T20:20:28.093Z,26.83
2022-10-26T20:22:58.264Z,26.83
2022-10-26T20:25:26.766Z,30.90
2022-10-26T20:27:55.186Z,25.63
2022-10-26T20:30:23.509Z,23.93
2022-10-26T20:32:51.680Z,30.50
2022-10-26T20:35:19.910Z,27.27
2022-10-26T20:37:48.749Z,29.63
2022-10-26T20:40:21.673Z,29.30
2022-10-26T20:42:52.580Z,29.73
2022-10-26T20:45:27.963Z,24.33
2022-10-26T20:47:57.426Z,32.30
2022-10-26T20:50:32.293Z,26.30
2022-10-26T20:53:05.119Z,34.73
2022-10-26T20:55:44.559Z,20.60
2022-10-26T20:58:19.690Z,29.77
2022-10-26T21:00:54.810Z,31.30
2022-10-26T21:03:22.957Z,27.80
2022-10-26T21:05:51.029Z,27.97
2022-10-26T21:08:19.898Z,20.13
2022-10-26T21:10:50.907Z,27.30
2022-10-26T21:13:19.968Z,21.90
2022-10-26T21:15:48.363Z,27.33
2022-10-26T21:18:16.589Z,20.97
2022-10-26T21:20:44.598Z,20.20
2022-10-26T21:23:12.997Z,31.47
2022-10-26T21:25:47.455Z,27.67
2022-10-26T21:28:18.026Z,27.70
2022-10-26T21:30:46.666Z,27.47
2022-10-26T21:33:32.190Z,27.37
2022-10-26T21:36:07.991Z,25.83
2022-10-26T21:38:36.654Z,28.20
2022-10-26T21:41:19.577Z,25.80
2022-10-26T21:44:14.989Z,29.63
2022-10-26T21:46:54.211Z,25.23
2022-10-26T21:49:22.425Z,33.87
2022-10-26T21:51:53.752Z,23.03
2022-10-26T21:54:27.075Z,17.83
2022-10-26T21:56:55.452Z,21.13
2022-10-26T21:59:35.542Z,27.00
2022-10-26T22:02:04.619Z,24.83
2022-10-26T22:04:35.636Z,17.23
2022-10-26T22:07:06.109Z,22.67
2022-10-26T22:09:40.676Z,22.83
2022-10-26T22:12:18.248Z,22.43
2022-10-26T22:14:50.781Z,22.87
2022-10-26T22:17:26.723Z,21.90
2022-10-26T22:20:01.196Z,19.43
2022-10-26T22:22:29.271Z,17.50
2022-10-26T22:24:59.276Z,16.27
2022-10-26T22:27:30.140Z,21.27
2022-10-26T22:30:03.189Z,22.53
2022-10-26T22:32:31.636Z,15.03
2022-10-26T22:35:11.273Z,22.90
2022-10-26T22:37:54.699Z,17.30
2022-10-26T22:40:22.901Z,22.83
2022-10-26T22:42:55.973Z,20.40
2022-10-26T22:45:26.624Z,16.00
2022-10-26T22:47:58.113Z,20.10
2022-10-26T22:50:26.521Z,21.40
2022-10-26T22:52:59.808Z,18.33
2022-10-26T22:55:28.561Z,21.53
2022-10-26T22:58:11.003Z,16.47
2022-10-26T23:00:44.052Z,18.80
2022-10-26T23:03:14.428Z,16.30
2022-10-26T23:05:48.180Z,16.57
2022-10-26T23:08:16.649Z,26.27
2022-10-26T23:10:44.860Z,19.70
2022-10-26T23:13:13.439Z,18.40
2022-10-26T23:15:42.982Z,18.77
2022-10-26T23:18:11.161Z,22.10
2022-10-26T23:20:39.430Z,24.43
2022-10-26T23:23:07.807Z,22.43
2022-10-26T23:25:36.152Z,22.07
2022-10-26T23:28:08.521Z,20.03
2022-10-26T23:30:38.375Z,17.93
2022-10-26T23:33:08.326Z,17.37
2022-10-26T23:35:36.457Z,20.17
2022-10-26T23:38:04.955Z,18.30
2022-10-26T23:40:33.688Z,17.13
2022-10-26T23:43:01.896Z,21.37
2022-10-26T23:45:30.181Z,23.70
2022-10-26T23:47:58.410Z,22.63
2022-10-26T23:50:28.318Z,21.77
2022-10-26T23:52:57.354Z,15.67
2022-10-26T23:55:27.073Z,22.33
2022-10-26T23:58:05.134Z,23.00
